Time;durP1;ratioP1;P1;durP2;ratioP2;P2;SDS_P1;SDS_P2;PMS_P1;PMS_P2;Temp;Humidity;BMP_temperature;BMP_pressure;BME280_temperature;BME280_humidity;BME280_pressure;Samples;Min_cycle;Max_cycle;Signal;HPM_P1;HPM_P2
2023/01/20 00:00:49;;;;;;;70.05;43.45;;;0.70;99.90;;;;;;5087480;28;20037;-78
2023/01/20 00:03:15;;;;;;;61.63;45.15;;;0.70;99.90;;;;;;5088756;28;20119;-77
2023/01/20 00:05:50;;;;;;;58.42;39.75;;;0.60;99.90;;;;;;5088312;28;20044;-77
2023/01/20 00:08:15;;;;;;;65.97;44.78;;;0.60;99.90;;;;;;5088665;28;20032;-78
2023/01/20 00:10:42;;;;;;;44.58;38.80;;;0.60;99.90;;;;;;5070701;28;20027;-77
2023/01/20 00:13:08;;;;;;;54.20;41.58;;;0.50;99.90;;;;;;5087217;28;20041;-77
2023/01/20 00:15:34;;;;;;;49.83;40.05;;;0.60;99.90;;;;;;5088449;28;20032;-77
2023/01/20 00:17:59;;;;;;;53.33;42.55;;;0.60;99.90;;;;;;5088593;28;20040;-77
2023/01/20 00:20:25;;;;;;;55.30;42.90;;;0.60;99.90;;;;;;5087970;28;20056;-77
2023/01/20 00:22:51;;;;;;;53.40;40.40;;;0.60;99.90;;;;;;5088361;28;20032;-76
2023/01/20 00:25:17;;;;;;;55.47;42.08;;;0.60;99.90;;;;;;5088321;28;20051;-78
2023/01/20 00:27:44;;;;;;;51.33;42.00;;;0.60;99.90;;;;;;5088203;28;20024;-78
2023/01/20 00:30:11;;;;;;;50.08;37.95;;;0.60;99.90;;;;;;5086826;28;20063;-78
2023/01/20 00:32:38;;;;;;;49.05;38.83;;;0.60;99.90;;;;;;5088278;28;20071;-79
2023/01/20 00:35:05;;;;;;;54.53;38.63;;;0.60;99.90;;;;;;5088038;28;20039;-78
2023/01/20 00:37:32;;;;;;;50.53;37.03;;;0.60;99.90;;;;;;5086980;28;20024;-77
2023/01/20 00:39:57;;;;;;;46.03;39.00;;;0.60;99.90;;;;;;5088046;28;20033;-79
2023/01/20 00:42:23;;;;;;;58.38;39.80;;;0.60;99.90;;;;;;5069132;28;20040;-76
2023/01/20 00:44:49;;;;;;;46.50;33.90;;;0.60;99.90;;;;;;5087789;28;20055;-79
2023/01/20 00:47:14;;;;;;;44.38;36.50;;;0.60;99.90;;;;;;5087028;28;20063;-78
2023/01/20 00:49:40;;;;;;;41.22;33.45;;;0.60;99.90;;;;;;5086292;28;20491;-79
2023/01/20 00:52:07;;;;;;;43.53;32.22;;;0.60;99.90;;;;;;5086721;28;20028;-79
2023/01/20 00:54:32;;;;;;;48.80;34.47;;;0.60;99.90;;;;;;5087742;28;20035;-78
2023/01/20 00:56:58;;;;;;;45.13;34.70;;;0.60;99.90;;;;;;5086523;28;20040;-78
2023/01/20 00:59:24;;;;;;;47.90;34.63;;;0.50;99.90;;;;;;5087706;28;20036;-78
2023/01/20 01:01:50;;;;;;;46.95;33.17;;;0.50;99.90;;;;;;5087676;28;20028;-78
2023/01/20 01:04:16;;;;;;;36.70;32.80;;;0.40;99.90;;;;;;5087323;28;20033;-79
2023/01/20 01:06:42;;;;;;;54.97;35.30;;;0.30;99.90;;;;;;5087556;28;20031;-77
2023/01/20 01:09:08;;;;;;;47.25;33.97;;;0.10;99.90;;;;;;5087546;28;20069;-79
2023/01/20 01:11:33;;;;;;;53.95;38.47;;;0.10;99.90;;;;;;5087405;28;20063;-78
2023/01/20 01:13:59;;;;;;;56.13;37.03;;;0.00;99.90;;;;;;5086101;28;20033;-79
2023/01/20 01:16:25;;;;;;;48.55;37.55;;;0.10;99.90;;;;;;5085970;28;20068;-78
2023/01/20 01:18:54;;;;;;;53.78;37.53;;;0.10;99.90;;;;;;5086967;28;20068;-78
2023/01/20 01:21:20;;;;;;;48.65;37.08;;;0.00;99.90;;;;;;5067260;28;20029;-78
2023/01/20 01:23:46;;;;;;;53.05;40.47;;;0.00;99.90;;;;;;5065507;28;20045;-78
2023/01/20 01:26:12;;;;;;;59.15;41.05;;;0.00;99.90;;;;;;5066960;28;20040;-78
2023/01/20 01:28:39;;;;;;;62.17;39.03;;;0.00;99.90;;;;;;5066926;28;20040;-78
2023/01/20 01:31:06;;;;;;;51.92;42.10;;;0.00;99.90;;;;;;5067086;28;20024;-78
2023/01/20 01:33:33;;;;;;;49.72;37.80;;;0.10;99.90;;;;;;5067994;28;20411;-77
2023/01/20 01:36:01;;;;;;;53.03;37.75;;;0.10;99.90;;;;;;5086989;28;20032;-78
2023/01/20 01:38:28;;;;;;;44.03;35.63;;;0.10;99.90;;;;;;5086875;28;20035;-78
2023/01/20 01:40:54;;;;;;;45.50;37.58;;;0.00;99.90;;;;;;5066716;28;20063;-78
2023/01/20 01:43:33;;;;;;;45.95;35.92;;;-0.10;99.90;;;;;;5065489;28;20037;-78
2023/01/20 01:45:58;;;;;;;42.63;35.22;;;-0.20;99.90;;;;;;5066824;28;20057;-78
2023/01/20 01:48:37;;;;;;;43.55;35.95;;;-0.10;99.90;;;;;;5067571;28;20063;-78
2023/01/20 01:51:18;;;;;;;49.63;36.38;;;-0.10;99.90;;;;;;5085044;28;20036;-77
2023/01/20 01:53:52;;;;;;;49.35;33.85;;;-0.20;99.90;;;;;;5086112;28;20024;-78
2023/01/20 01:56:21;;;;;;;54.30;36.88;;;-0.30;99.90;;;;;;5085321;28;20115;-78
2023/01/20 01:58:50;;;;;;;47.78;37.33;;;-0.40;99.90;;;;;;5086602;28;20033;-78
2023/01/20 02:01:17;;;;;;;60.03;39.72;;;-0.30;99.90;;;;;;5086438;28;20024;-78
2023/01/20 02:03:55;;;;;;;51.97;37.38;;;-0.30;99.90;;;;;;5086379;28;20028;-77
2023/01/20 02:06:24;;;;;;;58.63;40.97;;;-0.10;99.90;;;;;;5085963;28;20028;-78
2023/01/20 02:08:50;;;;;;;58.67;37.80;;;-0.10;99.90;;;;;;5086297;28;20064;-78
2023/01/20 02:11:17;;;;;;;55.65;38.90;;;0.00;99.90;;;;;;5084857;28;20055;-77
2023/01/20 02:13:43;;;;;;;57.08;36.95;;;0.10;99.90;;;;;;5086396;28;20029;-78
2023/01/20 02:16:16;;;;;;;51.13;37.42;;;0.20;99.90;;;;;;5086205;28;20066;-78
2023/01/20 02:18:42;;;;;;;50.50;37.75;;;0.20;99.90;;;;;;5086213;28;20028;-78
2023/01/20 02:21:53;;;;;;;54.05;38.15;;;0.20;99.90;;;;;;5084377;28;20506;-76
2023/01/20 02:24:53;;;;;;;51.10;37.92;;;0.30;99.90;;;;;;5083912;28;20048;-78
2023/01/20 02:27:25;;;;;;;50.17;37.70;;;0.30;99.90;;;;;;5084862;28;20025;-78
2023/01/20 02:30:18;;;;;;;49.40;34.42;;;0.40;99.90;;;;;;5086269;28;20032;-78
2023/01/20 02:32:56;;;;;;;57.28;36.78;;;0.50;99.90;;;;;;5085745;28;20057;-77
2023/01/20 02:35:48;;;;;;;45.83;33.60;;;0.50;99.90;;;;;;5084412;28;20036;-77
2023/01/20 02:38:44;;;;;;;47.10;34.78;;;0.50;99.90;;;;;;5085989;28;20032;-78
2023/01/20 02:41:18;;;;;;;47.95;34.53;;;0.60;99.90;;;;;;5065975;28;20039;-78
2023/01/20 02:43:55;;;;;;;54.90;35.45;;;0.60;99.90;;;;;;5065833;28;20108;-78
2023/01/20 02:46:31;;;;;;;37.78;32.75;;;0.60;99.90;;;;;;5065583;28;20041;-78
2023/01/20 02:49:13;;;;;;;51.17;35.83;;;0.60;99.90;;;;;;5065722;28;20055;-78
2023/01/20 02:51:51;;;;;;;45.60;30.80;;;0.70;99.90;;;;;;5081895;28;20028;-78
2023/01/20 02:54:20;;;;;;;43.50;33.55;;;0.70;99.90;;;;;;5085346;28;20085;-79
2023/01/20 02:56:48;;;;;;;43.25;30.95;;;0.70;99.90;;;;;;5085799;28;20053;-78
2023/01/20 02:59:18;;;;;;;51.67;33.47;;;0.70;99.90;;;;;;5085734;28;20029;-77
2023/01/20 03:01:47;;;;;;;;;;;0.70;99.90;;;;;;5085063;28;20027;-79
2023/01/20 03:04:18;;;;;;;43.83;30.00;;;0.80;99.90;;;;;;5085405;28;19905;-77
2023/01/20 03:06:49;;;;;;;42.83;30.60;;;0.80;99.90;;;;;;5090118;28;20032;-78
2023/01/20 03:09:19;;;;;;;42.13;30.02;;;0.80;99.90;;;;;;5088308;28;20020;-78
2023/01/20 03:11:51;;;;;;;41.75;31.25;;;0.80;99.90;;;;;;5088890;28;20032;-78
2023/01/20 03:14:17;;;;;;;43.22;32.95;;;0.90;99.90;;;;;;5089818;28;20024;-78
2023/01/20 03:16:46;;;;;;;43.47;29.88;;;0.90;99.90;;;;;;5089784;28;20020;-79
2023/01/20 03:19:13;;;;;;;31.88;25.23;;;0.80;99.90;;;;;;5089716;28;20028;-78
2023/01/20 03:21:39;;;;;;;38.90;31.42;;;0.90;99.90;;;;;;5089291;28;20025;-78
2023/01/20 03:24:06;;;;;;;38.80;28.48;;;0.90;99.90;;;;;;5089734;28;20526;-78
2023/01/20 03:26:32;;;;;;;45.10;34.40;;;0.60;99.90;;;;;;5070970;28;20044;-78
2023/01/20 03:29:01;;;;;;;39.45;29.75;;;0.90;99.90;;;;;;5089413;28;20040;-78
2023/01/20 03:31:44;;;;;;;32.42;24.88;;;0.80;99.90;;;;;;5089418;28;20032;-78
2023/01/20 03:34:14;;;;;;;49.35;34.15;;;0.90;99.90;;;;;;5089239;28;20068;-78
2023/01/20 03:36:42;;;;;;;41.42;32.58;;;0.90;99.90;;;;;;5089164;28;20100;-78
2023/01/20 03:39:09;;;;;;;45.78;32.20;;;0.90;99.90;;;;;;5089009;28;20084;-78
2023/01/20 03:41:55;;;;;;;37.17;30.75;;;0.90;99.90;;;;;;5088936;28;20035;-77
2023/01/20 03:44:21;;;;;;;39.28;27.10;;;0.90;99.90;;;;;;5087948;28;20056;-78
2023/01/20 03:47:17;;;;;;;52.55;32.15;;;0.90;99.90;;;;;;5089031;28;20508;-78
2023/01/20 03:49:55;;;;;;;44.42;32.13;;;0.90;99.90;;;;;;5089124;28;20020;-79
2023/01/20 03:52:31;;;;;;;47.03;29.42;;;0.80;99.90;;;;;;5089072;28;20029;-79
2023/01/20 03:55:05;;;;;;;47.33;33.95;;;0.90;99.90;;;;;;5088720;28;20070;-79
2023/01/20 03:57:37;;;;;;;43.38;33.30;;;0.90;99.90;;;;;;5088931;28;20040;-78
2023/01/20 04:00:07;;;;;;;46.80;36.63;;;0.90;99.90;;;;;;5088816;28;20039;-78
2023/01/20 04:02:39;;;;;;;53.70;36.92;;;0.90;99.90;;;;;;5088897;28;20040;-78
2023/01/20 04:05:06;;;;;;;51.10;36.85;;;0.90;99.90;;;;;;5088578;28;20395;-78
2023/01/20 04:07:33;;;;;;;45.83;31.70;;;0.90;99.90;;;;;;5088694;28;20016;-79
2023/01/20 04:10:09;;;;;;;51.45;38.80;;;0.90;99.90;;;;;;5088339;28;20035;-79
2023/01/20 04:12:35;;;;;;;44.35;34.00;;;0.90;99.90;;;;;;5087384;28;20097;-78
2023/01/20 04:15:01;;;;;;;37.30;33.22;;;0.80;99.90;;;;;;5070408;28;20035;-78
2023/01/20 04:17:28;;;;;;;40.85;31.70;;;1.00;99.90;;;;;;5088530;28;20063;-78
2023/01/20 04:19:54;;;;;;;42.50;34.83;;;0.80;99.90;;;;;;5088262;28;20036;-79
2023/01/20 04:22:33;;;;;;;48.13;35.83;;;0.90;99.90;;;;;;5087136;28;20395;-78
2023/01/20 04:25:11;;;;;;;46.88;35.10;;;0.90;99.90;;;;;;5088084;28;20036;-78
2023/01/20 04:27:36;;;;;;;42.95;33.38;;;0.90;99.90;;;;;;5088301;28;20028;-78
2023/01/20 04:30:02;;;;;;;52.78;37.95;;;0.90;99.90;;;;;;5087123;28;20043;-78
2023/01/20 04:32:28;;;;;;;49.95;34.70;;;0.80;99.90;;;;;;5087947;28;20036;-78
2023/01/20 04:34:54;;;;;;;39.03;34.40;;;0.80;99.90;;;;;;5086922;28;20088;-78
2023/01/20 04:37:19;;;;;;;48.42;33.63;;;0.80;99.90;;;;;;5088226;28;20040;-78
2023/01/20 04:39:45;;;;;;;42.45;33.33;;;0.80;99.90;;;;;;5087766;28;20040;-79
2023/01/20 04:42:11;;;;;;;44.17;30.40;;;0.80;99.90;;;;;;5088164;28;20036;-78
2023/01/20 04:44:37;;;;;;;40.53;29.42;;;0.80;99.90;;;;;;5088194;28;20036;-78
2023/01/20 04:47:03;;;;;;;42.70;31.48;;;0.80;99.90;;;;;;5087845;28;20028;-78
2023/01/20 04:49:29;;;;;;;42.83;31.70;;;0.80;99.90;;;;;;5088059;28;20036;-78
2023/01/20 04:51:55;;;;;;;38.00;27.30;;;0.80;99.90;;;;;;5087796;28;20036;-78
2023/01/20 04:54:21;;;;;;;40.25;32.42;;;0.80;99.90;;;;;;5087620;28;20024;-78
2023/01/20 04:56:47;;;;;;;41.42;29.98;;;0.90;99.90;;;;;;5087914;28;20043;-78
2023/01/20 04:59:13;;;;;;;43.70;28.55;;;0.80;99.90;;;;;;5086435;28;20028;-78
2023/01/20 05:01:39;;;;;;;43.10;32.35;;;0.80;99.90;;;;;;5087722;28;20096;-78
2023/01/20 05:04:05;;;;;;;38.47;30.17;;;0.90;99.90;;;;;;5087635;28;20487;-78
2023/01/20 05:06:30;;;;;;;35.55;29.58;;;0.90;99.90;;;;;;5087615;28;20032;-79
2023/01/20 05:08:56;;;;;;;34.95;27.90;;;0.80;99.90;;;;;;5085858;28;20039;-79
2023/01/20 05:11:22;;;;;;;34.47;29.80;;;0.80;99.90;;;;;;5086280;28;20087;-78
2023/01/20 05:13:48;;;;;;;45.83;30.23;;;0.80;99.90;;;;;;5086187;28;20029;-78
2023/01/20 05:16:13;;;;;;;39.97;28.20;;;0.80;99.90;;;;;;5087290;28;20024;-77
2023/01/20 05:18:39;;;;;;;41.42;29.65;;;0.70;99.90;;;;;;5086378;28;20478;-78
2023/01/20 05:21:07;;;;;;;45.63;29.73;;;0.70;99.90;;;;;;5087052;28;20032;-79
2023/01/20 05:23:33;;;;;;;38.50;27.15;;;0.80;99.90;;;;;;5085696;28;20025;-78
2023/01/20 05:25:59;;;;;;;40.38;30.80;;;0.70;99.90;;;;;;5087252;28;20437;-78
2023/01/20 05:28:25;;;;;;;35.97;28.00;;;0.80;99.90;;;;;;5085199;28;20024;-78
2023/01/20 05:30:51;;;;;;;50.95;31.92;;;0.80;99.90;;;;;;5087076;28;20028;-78
2023/01/20 05:33:17;;;;;;;34.70;28.90;;;0.70;99.90;;;;;;5087002;28;20514;-78
2023/01/20 05:35:43;;;;;;;32.00;27.40;;;0.70;99.90;;;;;;5067453;28;20029;-78
2023/01/20 05:38:08;;;;;;;36.47;27.30;;;0.70;99.90;;;;;;5085282;28;20040;-78
2023/01/20 05:40:34;;;;;;;40.47;29.45;;;0.70;99.90;;;;;;5087062;28;20064;-79
2023/01/20 05:43:01;;;;;;;34.33;29.23;;;0.70;99.90;;;;;;5082648;28;20036;-79
2023/01/20 05:45:28;;;;;;;35.90;24.45;;;0.80;99.90;;;;;;5085850;28;20029;-79
2023/01/20 05:47:55;;;;;;;36.40;25.17;;;0.80;99.90;;;;;;5065143;28;20066;-79
2023/01/20 05:50:22;;;;;;;33.10;26.73;;;0.70;99.90;;;;;;5084968;28;20028;-79
2023/01/20 05:52:47;;;;;;;34.78;27.15;;;0.80;99.90;;;;;;5086507;28;20032;-79
2023/01/20 05:55:13;;;;;;;36.38;24.23;;;0.80;99.90;;;;;;5085012;28;20050;-79
2023/01/20 05:57:39;;;;;;;39.78;28.90;;;0.80;99.90;;;;;;5084293;28;20050;-79
2023/01/20 06:00:06;;;;;;;38.20;27.20;;;0.80;99.90;;;;;;5068175;28;20119;-78
2023/01/20 06:02:31;;;;;;;38.13;28.85;;;0.80;99.90;;;;;;5085680;28;20042;-79
2023/01/20 06:05:00;;;;;;;30.20;25.05;;;0.90;99.90;;;;;;5084594;28;20056;-79
2023/01/20 06:07:28;;;;;;;36.25;28.20;;;0.80;99.90;;;;;;5086112;28;20031;-79
2023/01/20 06:09:54;;;;;;;33.95;26.73;;;0.80;99.90;;;;;;5084917;28;20025;-78
2023/01/20 06:12:21;;;;;;;45.08;28.75;;;0.80;99.90;;;;;;5064838;28;20044;-79
2023/01/20 06:14:47;;;;;;;38.53;26.20;;;0.80;99.90;;;;;;5077315;28;20453;-79
2023/01/20 06:17:13;;;;;;;33.78;25.45;;;0.80;99.90;;;;;;5086676;28;20036;-78
2023/01/20 06:19:39;;;;;;;37.28;26.73;;;0.80;99.90;;;;;;5085964;28;20028;-79
2023/01/20 06:22:07;;;;;;;45.97;29.80;;;0.80;99.90;;;;;;5066891;28;20479;-79
2023/01/20 06:24:33;;;;;;;33.50;26.17;;;0.80;99.90;;;;;;5067953;28;20033;-79
2023/01/20 06:26:58;;;;;;;35.85;28.60;;;0.80;99.90;;;;;;5083182;28;20039;-79
2023/01/20 06:29:24;;;;;;;39.45;29.92;;;0.80;99.90;;;;;;5078587;28;20052;-79
2023/01/20 06:31:50;;;;;;;53.75;35.38;;;1.10;99.90;;;;;;5078153;28;20387;-79
2023/01/20 06:34:16;;;;;;;46.58;32.75;;;0.70;99.90;;;;;;5084370;28;20036;-79
2023/01/20 06:36:42;;;;;;;39.63;30.77;;;0.70;99.90;;;;;;5068001;28;20047;-79
2023/01/20 06:39:08;;;;;;;37.30;29.08;;;0.80;99.90;;;;;;5084366;28;20033;-79
2023/01/20 06:41:34;;;;;;;47.95;41.45;;;0.80;99.90;;;;;;5096383;28;20107;-79
2023/01/20 06:44:00;;;;;;;42.75;34.58;;;0.80;99.90;;;;;;5076395;28;20051;-78
2023/01/20 06:46:25;;;;;;;39.20;28.52;;;0.80;99.90;;;;;;5093904;28;20029;-79
2023/01/20 06:48:57;;;;;;;48.33;37.08;;;0.80;99.90;;;;;;5092106;28;20028;-79
2023/01/20 06:51:24;;;;;;;51.90;42.35;;;0.80;99.90;;;;;;5095882;28;20088;-79
2023/01/20 06:53:49;;;;;;;45.92;32.17;;;0.90;99.90;;;;;;5092156;28;20105;-78
2023/01/20 06:56:15;;;;;;;47.03;30.25;;;0.90;99.90;;;;;;5090981;28;20016;-78
2023/01/20 06:58:42;;;;;;;38.50;30.15;;;0.90;99.90;;;;;;5085547;28;20060;-79
2023/01/20 07:01:28;;;;;;;33.70;27.90;;;0.90;99.90;;;;;;5093476;28;20043;-78
2023/01/20 07:03:54;;;;;;;29.55;26.08;;;0.90;99.90;;;;;;5091894;28;20024;-78
2023/01/20 07:06:32;;;;;;;40.67;29.42;;;0.90;99.90;;;;;;5095339;28;20111;-79
2023/01/20 07:08:59;;;;;;;35.70;28.13;;;0.90;99.90;;;;;;5091818;28;20032;-79
2023/01/20 07:11:26;;;;;;;49.67;37.45;;;0.90;99.90;;;;;;5091601;28;20024;-79
2023/01/20 07:13:52;;;;;;;41.92;30.83;;;0.80;99.90;;;;;;5093191;28;20054;-78
2023/01/20 07:16:18;;;;;;;51.65;37.83;;;0.90;99.90;;;;;;5093080;28;20032;-78
2023/01/20 07:18:47;;;;;;;42.53;31.88;;;0.90;99.90;;;;;;5091937;28;20060;-79
2023/01/20 07:21:13;;;;;;;31.17;27.88;;;0.90;99.90;;;;;;5086263;28;20044;-78
2023/01/20 07:23:39;;;;;;;36.08;29.02;;;0.80;99.90;;;;;;5087747;28;20501;-79
2023/01/20 07:26:07;;;;;;;50.53;32.95;;;0.80;99.90;;;;;;5085580;28;20036;-78
2023/01/20 07:28:34;;;;;;;48.35;35.70;;;1.20;99.90;;;;;;5093274;28;20024;-79
2023/01/20 07:31:11;;;;;;;48.15;32.80;;;1.00;99.90;;;;;;5099461;28;20497;-78
2023/01/20 07:33:37;;;;;;;47.63;35.97;;;0.70;99.90;;;;;;5104539;28;20060;-78
2023/01/20 07:36:04;;;;;;;47.00;35.80;;;0.70;99.90;;;;;;5104203;28;20032;-79
2023/01/20 07:38:30;;;;;;;52.83;35.85;;;0.80;99.90;;;;;;5085393;28;20029;-78
2023/01/20 07:40:59;;;;;;;55.60;35.58;;;0.80;99.90;;;;;;5083400;28;20029;-78
2023/01/20 07:43:25;;;;;;;54.05;36.33;;;0.70;99.90;;;;;;5084320;28;20060;-78
2023/01/20 07:46:09;;;;;;;45.35;38.60;;;0.80;99.90;;;;;;5085160;28;20475;-78
2023/01/20 07:48:35;;;;;;;47.58;35.22;;;0.80;99.90;;;;;;5085383;28;20048;-78
2023/01/20 07:51:04;;;;;;;42.92;34.60;;;0.80;99.90;;;;;;5086495;28;20020;-78
2023/01/20 07:53:34;;;;;;;46.70;35.53;;;0.70;99.90;;;;;;5089194;28;20103;-77
2023/01/20 07:56:03;;;;;;;43.72;33.78;;;0.70;99.90;;;;;;5088418;28;20033;-77
2023/01/20 07:58:29;;;;;;;48.83;35.50;;;0.70;99.90;;;;;;5087126;28;20032;-79
2023/01/20 08:00:55;;;;;;;41.15;33.22;;;0.70;99.90;;;;;;5088215;28;20053;-78
2023/01/20 08:03:22;;;;;;;40.38;33.92;;;0.80;99.90;;;;;;5088769;28;20036;-77
2023/01/20 08:05:48;;;;;;;39.80;34.33;;;0.80;99.90;;;;;;5087303;28;20037;-78
2023/01/20 08:08:13;;;;;;;46.13;33.03;;;0.80;99.90;;;;;;5121684;28;20037;-78
2023/01/20 08:10:39;;;;;;;39.78;31.90;;;0.80;99.90;;;;;;5088710;28;20036;-77
2023/01/20 08:13:05;;;;;;;42.28;34.00;;;0.70;99.90;;;;;;5087129;28;20059;-78
2023/01/20 08:15:31;;;;;;;41.63;32.30;;;1.40;99.90;;;;;;5087982;28;20054;-78
2023/01/20 08:17:58;;;;;;;41.33;31.30;;;0.80;99.90;;;;;;5067862;28;20044;-77
2023/01/20 08:20:24;;;;;;;39.45;30.70;;;0.80;99.90;;;;;;5084204;28;20056;-77
2023/01/20 08:22:50;;;;;;;38.03;31.77;;;0.80;99.90;;;;;;5087275;28;20040;-76
2023/01/20 08:25:15;;;;;;;36.08;32.28;;;0.80;99.90;;;;;;5088566;28;20033;-77
2023/01/20 08:27:41;;;;;;;38.47;31.05;;;0.80;99.90;;;;;;5070036;28;20036;-77
2023/01/20 08:30:08;;;;;;;31.50;28.02;;;0.70;99.90;;;;;;5088620;28;20395;-77
2023/01/20 08:32:33;;;;;;;39.10;32.40;;;0.80;99.90;;;;;;5087000;28;20045;-77
2023/01/20 08:34:59;;;;;;;37.00;28.02;;;0.70;99.90;;;;;;5082070;28;20096;-77
2023/01/20 08:37:25;;;;;;;36.70;30.45;;;0.80;99.90;;;;;;5086598;28;20048;-77
2023/01/20 08:39:51;;;;;;;42.65;32.28;;;0.70;99.90;;;;;;5113615;28;20037;-77
2023/01/20 08:42:17;;;;;;;31.48;26.80;;;0.70;99.90;;;;;;5066935;28;20024;-77
2023/01/20 08:44:43;;;;;;;38.15;29.45;;;0.70;99.90;;;;;;5068006;28;20186;-77
2023/01/20 08:47:09;;;;;;;36.03;28.02;;;0.80;99.90;;;;;;5068045;28;20460;-78
2023/01/20 08:49:34;;;;;;;32.88;26.73;;;0.70;99.90;;;;;;5067975;28;20085;-77
2023/01/20 08:52:01;;;;;;;35.38;29.42;;;0.70;99.90;;;;;;5072634;28;20033;-77
2023/01/20 08:54:28;;;;;;;41.15;31.33;;;0.80;99.90;;;;;;5087355;28;20040;-77
2023/01/20 08:56:54;;;;;;;32.40;29.35;;;0.80;99.90;;;;;;5086101;28;20029;-77
2023/01/20 08:59:21;;;;;;;37.25;27.70;;;0.80;99.90;;;;;;5087199;28;20080;-78
2023/01/20 09:01:46;;;;;;;29.83;26.50;;;0.80;99.90;;;;;;5086849;28;20092;-77
2023/01/20 09:04:12;;;;;;;32.95;29.00;;;0.80;99.90;;;;;;5086654;28;20024;-77
2023/01/20 09:06:48;;;;;;;34.95;28.65;;;0.80;99.90;;;;;;5069210;28;20383;-77
2023/01/20 09:09:16;;;;;;;29.63;26.45;;;0.90;99.90;;;;;;5087120;28;20020;-77
2023/01/20 09:11:49;;;;;;;39.65;30.17;;;0.90;99.90;;;;;;5081877;28;20028;-77
2023/01/20 09:14:23;;;;;;;38.55;27.58;;;0.90;99.90;;;;;;5087114;28;20116;-77
2023/01/20 09:16:50;;;;;;;36.00;28.58;;;0.90;99.90;;;;;;5086815;28;20555;-77
2023/01/20 09:19:16;;;;;;;34.10;27.98;;;0.90;99.90;;;;;;5086827;28;20048;-77
2023/01/20 09:21:42;;;;;;;34.38;27.40;;;0.90;99.90;;;;;;5086769;28;20032;-77
2023/01/20 09:24:09;;;;;;;37.25;29.25;;;1.00;99.90;;;;;;5086952;28;20077;-77
2023/01/20 09:26:38;;;;;;;27.52;24.65;;;1.10;99.90;;;;;;5086529;28;20386;-77
2023/01/20 09:29:09;;;;;;;31.98;27.67;;;1.00;99.90;;;;;;5086682;28;20028;-77
2023/01/20 09:31:49;;;;;;;27.80;24.85;;;1.00;99.90;;;;;;5086717;28;20463;-77
2023/01/20 09:34:23;;;;;;;28.58;24.98;;;1.00;99.90;;;;;;5086645;28;20376;-77
2023/01/20 09:45:48;;;;;;;;;;;1.00;99.90;;;;;;5044273;28;20129;-78
2023/01/20 09:54:28;;;;;;;29.38;21.15;;;0.90;99.90;;;;;;5085535;28;20039;-78
2023/01/20 09:56:58;;;;;;;23.27;20.77;;;0.90;99.90;;;;;;5083090;28;20044;-78
2023/01/20 09:59:31;;;;;;;24.25;20.95;;;0.90;99.90;;;;;;5105871;28;20025;-79
2023/01/20 10:02:03;;;;;;;27.23;21.67;;;0.90;99.90;;;;;;5083086;28;20021;-78
2023/01/20 10:04:38;;;;;;;26.55;23.30;;;0.80;99.90;;;;;;5081164;28;20060;-78
2023/01/20 10:07:29;;;;;;;25.42;20.83;;;1.70;99.90;;;;;;5081122;28;20046;-78
2023/01/20 10:10:39;;;;;;;26.15;22.65;;;0.90;99.90;;;;;;5085919;28;20056;-79
2023/01/20 10:13:22;;;;;;;21.83;18.60;;;0.90;99.90;;;;;;5063705;28;20043;-78
2023/01/20 10:15:53;;;;;;;28.95;21.13;;;0.90;99.90;;;;;;5064095;28;20419;-79
2023/01/20 10:18:32;;;;;;;21.98;19.70;;;1.20;99.90;;;;;;5070819;28;20037;-78
2023/01/20 10:21:08;;;;;;;26.10;22.60;;;0.90;99.90;;;;;;5081783;28;20030;-77
2023/01/20 10:23:45;;;;;;;25.10;22.42;;;0.90;99.90;;;;;;5084880;28;20029;-78
2023/01/20 10:26:53;;;;;;;24.95;21.67;;;0.90;99.90;;;;;;5085602;28;20032;-78
2023/01/20 10:29:26;;;;;;;23.40;20.88;;;0.90;99.90;;;;;;5085425;28;20024;-79
2023/01/20 10:32:01;;;;;;;22.58;20.27;;;1.00;99.90;;;;;;5085632;28;20021;-79
2023/01/20 10:34:44;;;;;;;20.13;18.02;;;0.90;99.90;;;;;;5085059;28;20125;-79
2023/01/20 10:37:10;;;;;;;20.33;18.05;;;0.90;99.90;;;;;;5084167;28;20074;-79
2023/01/20 10:39:52;;;;;;;21.27;18.85;;;0.90;99.90;;;;;;5085679;28;20012;-80
2023/01/20 10:42:19;;;;;;;20.63;18.75;;;0.80;99.90;;;;;;5085518;28;20107;-79
2023/01/20 10:44:48;;;;;;;23.15;18.83;;;0.80;99.90;;;;;;5081335;28;20037;-80
2023/01/20 10:47:14;;;;;;;22.52;19.52;;;0.80;99.90;;;;;;5117209;28;20028;-81
2023/01/20 10:50:09;;;;;;;21.52;19.38;;;0.90;99.90;;;;;;5084810;28;20028;-79
2023/01/20 10:52:46;;;;;;;21.67;19.58;;;0.90;99.90;;;;;;5085358;28;20063;-80
2023/01/20 10:55:37;;;;;;;19.88;17.80;;;0.90;99.90;;;;;;5085017;28;20029;-80
2023/01/20 10:58:33;;;;;;;21.40;17.58;;;1.30;99.90;;;;;;5085472;28;20028;-81
2023/01/20 11:01:04;;;;;;;19.02;17.05;;;1.00;99.90;;;;;;5084138;28;20039;-80
2023/01/20 11:03:42;;;;;;;20.55;18.45;;;1.00;99.90;;;;;;5084653;28;20029;-80
2023/01/20 11:06:16;;;;;;;17.70;15.90;;;1.00;99.90;;;;;;5085976;28;20033;-79
2023/01/20 11:08:42;;;;;;;21.08;18.90;;;1.00;99.90;;;;;;5085703;28;20029;-79
2023/01/20 11:11:14;;;;;;;15.93;14.25;;;1.00;99.90;;;;;;5085486;28;20024;-80
2023/01/20 11:13:40;;;;;;;17.83;16.08;;;1.10;99.90;;;;;;5085619;28;20394;-79
2023/01/20 11:16:15;;;;;;;14.65;13.30;;;1.10;99.90;;;;;;5084544;28;20035;-80
2023/01/20 11:18:42;;;;;;;18.52;16.17;;;1.00;99.90;;;;;;5085205;28;20056;-80
2023/01/20 11:21:11;;;;;;;14.88;13.43;;;1.10;99.90;;;;;;5085701;28;20043;-80
2023/01/20 11:23:48;;;;;;;14.38;12.75;;;1.00;99.90;;;;;;5085080;28;20036;-80
2023/01/20 11:26:16;;;;;;;15.27;13.77;;;1.10;99.90;;;;;;5085948;28;20054;-82
2023/01/20 11:28:47;;;;;;;18.05;16.30;;;1.20;99.90;;;;;;5089153;28;20052;-81
2023/01/20 11:31:14;;;;;;;15.43;13.68;;;1.20;99.90;;;;;;5068490;28;20029;-81
2023/01/20 11:33:52;;;;;;;19.20;17.13;;;1.40;99.90;;;;;;5069644;28;20045;-80
2023/01/20 11:36:18;;;;;;;15.98;14.40;;;1.40;99.90;;;;;;5071283;28;20052;-81
2023/01/20 11:38:46;;;;;;;18.45;16.70;;;1.40;99.90;;;;;;5071823;28;20036;-80
2023/01/20 11:41:29;;;;;;;19.75;14.88;;;1.50;99.90;;;;;;5089379;28;20057;-80
2023/01/20 11:43:57;;;;;;;14.93;13.25;;;1.40;99.90;;;;;;5073352;28;20021;-80
2023/01/20 11:46:32;;;;;;;17.33;15.52;;;1.50;99.90;;;;;;5077761;28;20056;-80
2023/01/20 11:49:18;;;;;;;20.80;18.90;;;1.40;99.90;;;;;;5077036;28;20061;-80
2023/01/20 11:51:47;;;;;;;17.92;16.02;;;1.50;99.90;;;;;;5106345;28;20088;-80
2023/01/20 11:54:28;;;;;;;22.95;20.73;;;1.60;99.90;;;;;;5077283;28;20029;-80
2023/01/20 11:57:03;;;;;;;18.80;17.05;;;1.70;99.90;;;;;;5078599;28;20023;-82
2023/01/20 11:59:34;;;;;;;24.20;18.23;;;1.70;99.90;;;;;;5081434;28;20067;-82
2023/01/20 12:02:22;;;;;;;23.23;20.48;;;1.60;99.90;;;;;;5093615;28;20032;-82
2023/01/20 12:04:51;;;;;;;19.98;17.73;;;1.70;99.90;;;;;;5089218;28;20032;-82
2023/01/20 12:07:28;;;;;;;15.63;13.93;;;1.80;99.90;;;;;;5076919;28;20027;-83
2023/01/20 12:10:03;;;;;;;15.55;14.18;;;2.00;99.90;;;;;;5100839;28;20076;-82
2023/01/20 12:12:48;;;;;;;19.10;17.35;;;2.00;99.90;;;;;;5101728;28;20047;-83
2023/01/20 12:15:22;;;;;;;18.40;16.52;;;2.50;99.90;;;;;;5084125;28;20036;-84
2023/01/20 12:17:47;;;;;;;16.88;15.35;;;2.10;99.90;;;;;;5102044;28;20028;-82
2023/01/20 12:40:29;;;;;;;13.60;12.40;;;2.70;99.90;;;;;;5020334;28;20045;-80
2023/01/20 12:43:20;;;;;;;17.90;16.02;;;2.70;99.90;;;;;;5003914;28;20019;-82
2023/01/20 12:45:47;;;;;;;16.45;14.88;;;;;;;;;;5014347;28;20038;-80
2023/01/20 12:48:35;;;;;;;16.83;14.93;;;2.70;99.90;;;;;;5017506;28;20029;-79
2023/01/20 12:51:20;;;;;;;14.65;13.20;;;2.70;99.90;;;;;;5034489;28;20023;-79
2023/01/20 12:54:01;;;;;;;16.05;13.93;;;2.70;99.90;;;;;;5034014;28;20018;-80
2023/01/20 12:56:53;;;;;;;17.92;16.02;;;2.80;99.90;;;;;;5031941;28;20026;-81
2023/01/20 12:59:37;;;;;;;15.73;14.32;;;2.80;99.90;;;;;;5016326;28;20021;-79
2023/01/20 13:02:15;;;;;;;14.98;12.68;;;2.90;99.90;;;;;;5027845;28;20065;-81
2023/01/20 13:04:47;;;;;;;12.30;11.18;;;2.90;99.90;;;;;;5023981;28;20066;-81
2023/01/20 13:07:34;;;;;;;14.75;12.98;;;2.90;99.90;;;;;;5006996;28;20033;-79
2023/01/20 13:10:24;;;;;;;13.60;12.48;;;2.90;99.90;;;;;;5007283;28;20035;-80
2023/01/20 13:12:49;;;;;;;13.20;11.88;;;3.10;99.90;;;;;;5008309;28;20026;-82
2023/01/20 13:15:31;;;;;;;13.43;12.20;;;3.20;99.90;;;;;;5008329;28;20037;-80
2023/01/20 13:18:23;;;;;;;16.10;14.77;;;3.10;99.90;;;;;;5008148;28;20030;-80
2023/01/20 13:20:51;;;;;;;15.32;13.85;;;3.10;99.90;;;;;;5023182;28;20030;-79
2023/01/20 13:23:30;;;;;;;14.82;13.45;;;3.00;99.90;;;;;;5006232;28;20030;-79
2023/01/20 13:25:57;;;;;;;16.58;15.07;;;2.90;99.90;;;;;;4998993;28;20062;-80
2023/01/20 13:28:25;;;;;;;18.48;16.70;;;2.90;99.90;;;;;;5022378;28;20026;-80
2023/01/20 13:30:53;;;;;;;18.77;16.83;;;2.80;99.90;;;;;;5007850;28;20041;-79